Terminal Aerodrome Forecast
Issued by NWS

Home | Current Version | Previous Version | Text Only | Print | Product List | Glossary On
Versions: 1 2 3 4 5 6 7 8 9 10 11 12 13 14 15 16 17 18 19 20 21 22 23 24 25 26 27 28 29 30 31 32 33 34 35 36 37 38
000
FTUS41 KBOX 222344
TAFACK
TAF
KACK 222344Z 2300/2324 06011KT P6SM BKN080
     FM230500 07010KT 5SM BR OVC040
     FM230700 06010KT P6SM OVC015
     FM230900 05011KT P6SM OVC025
     FM231500 04013KT P6SM BKN035
     FM232200 05012KT P6SM BKN020=

USA.gov is the U.S. government's official web portal to all federal, state and local government web resources and services.